sensor_id;sensor_type;location;lat;lon;timestamp;temperature;humidity
21355;DHT22;10835;50.148;19.760;2023-06-26T00:00:19;26.50;55.20
21355;DHT22;10835;50.148;19.760;2023-06-26T00:02:48;26.60;54.40
21355;DHT22;10835;50.148;19.760;2023-06-26T00:05:16;26.50;54.00
21355;DHT22;10835;50.148;19.760;2023-06-26T00:07:45;26.50;54.20
21355;DHT22;10835;50.148;19.760;2023-06-26T00:10:13;26.50;54.10
21355;DHT22;10835;50.148;19.760;2023-06-26T00:12:41;26.50;54.00
21355;DHT22;10835;50.148;19.760;2023-06-26T00:15:10;26.50;54.00
21355;DHT22;10835;50.148;19.760;2023-06-26T00:17:40;26.40;53.80
21355;DHT22;10835;50.148;19.760;2023-06-26T00:20:09;26.60;53.90
21355;DHT22;10835;50.148;19.760;2023-06-26T00:22:40;26.60;53.70
21355;DHT22;10835;50.148;19.760;2023-06-26T00:25:08;26.50;53.90
21355;DHT22;10835;50.148;19.760;2023-06-26T00:27:36;26.50;54.30
21355;DHT22;10835;50.148;19.760;2023-06-26T00:30:05;26.50;53.20
21355;DHT22;10835;50.148;19.760;2023-06-26T00:32:35;26.50;53.10
21355;DHT22;10835;50.148;19.760;2023-06-26T00:35:06;26.30;53.60
21355;DHT22;10835;50.148;19.760;2023-06-26T00:37:34;26.20;53.60
21355;DHT22;10835;50.148;19.760;2023-06-26T00:40:03;25.90;53.70
21355;DHT22;10835;50.148;19.760;2023-06-26T00:42:32;25.90;54.10
21355;DHT22;10835;50.148;19.760;2023-06-26T00:45:01;25.70;54.20
21355;DHT22;10835;50.148;19.760;2023-06-26T00:47:30;25.70;54.00
21355;DHT22;10835;50.148;19.760;2023-06-26T00:49:59;25.70;54.10
21355;DHT22;10835;50.148;19.760;2023-06-26T00:52:29;25.60;53.90
21355;DHT22;10835;50.148;19.760;2023-06-26T00:54:59;25.20;54.40
21355;DHT22;10835;50.148;19.760;2023-06-26T00:57:27;25.20;55.20
21355;DHT22;10835;50.148;19.760;2023-06-26T00:59:56;25.10;54.70
21355;DHT22;10835;50.148;19.760;2023-06-26T01:02:24;25.10;54.80
21355;DHT22;10835;50.148;19.760;2023-06-26T01:04:56;24.80;54.80
21355;DHT22;10835;50.148;19.760;2023-06-26T01:07:24;25.00;55.10
21355;DHT22;10835;50.148;19.760;2023-06-26T01:09:54;24.90;55.00
21355;DHT22;10835;50.148;19.760;2023-06-26T01:12:24;24.80;55.20
21355;DHT22;10835;50.148;19.760;2023-06-26T01:14:53;24.70;55.50
21355;DHT22;10835;50.148;19.760;2023-06-26T01:17:21;24.80;55.50
21355;DHT22;10835;50.148;19.760;2023-06-26T01:19:50;24.80;55.40
21355;DHT22;10835;50.148;19.760;2023-06-26T01:22:23;24.60;55.30
21355;DHT22;10835;50.148;19.760;2023-06-26T01:25:03;24.50;55.50
21355;DHT22;10835;50.148;19.760;2023-06-26T01:27:33;24.40;56.80
21355;DHT22;10835;50.148;19.760;2023-06-26T01:30:03;24.30;56.20
21355;DHT22;10835;50.148;19.760;2023-06-26T01:32:35;24.10;56.40
21355;DHT22;10835;50.148;19.760;2023-06-26T01:35:05;24.00;56.80
21355;DHT22;10835;50.148;19.760;2023-06-26T01:37:34;23.80;57.00
21355;DHT22;10835;50.148;19.760;2023-06-26T01:40:03;23.70;57.20
21355;DHT22;10835;50.148;19.760;2023-06-26T01:42:34;23.90;57.20
21355;DHT22;10835;50.148;19.760;2023-06-26T01:45:07;23.90;57.10
21355;DHT22;10835;50.148;19.760;2023-06-26T01:47:40;23.80;56.90
21355;DHT22;10835;50.148;19.760;2023-06-26T01:50:16;23.70;57.00
21355;DHT22;10835;50.148;19.760;2023-06-26T01:52:56;23.80;57.20
21355;DHT22;10835;50.148;19.760;2023-06-26T01:55:32;24.00;57.50
21355;DHT22;10835;50.148;19.760;2023-06-26T01:58:04;24.00;57.40
21355;DHT22;10835;50.148;19.760;2023-06-26T02:00:33;24.50;56.30
21355;DHT22;10835;50.148;19.760;2023-06-26T02:03:02;24.70;55.50
21355;DHT22;10835;50.148;19.760;2023-06-26T02:05:32;24.60;55.30
21355;DHT22;10835;50.148;19.760;2023-06-26T02:08:00;24.80;55.20
21355;DHT22;10835;50.148;19.760;2023-06-26T02:10:30;25.20;55.00
21355;DHT22;10835;50.148;19.760;2023-06-26T02:12:58;25.50;54.20
21355;DHT22;10835;50.148;19.760;2023-06-26T02:15:28;25.70;53.70
21355;DHT22;10835;50.148;19.760;2023-06-26T02:17:56;25.90;53.50
21355;DHT22;10835;50.148;19.760;2023-06-26T02:20:26;26.00;52.90
21355;DHT22;10835;50.148;19.760;2023-06-26T02:22:54;25.80;53.00
21355;DHT22;10835;50.148;19.760;2023-06-26T02:25:22;25.80;53.10
21355;DHT22;10835;50.148;19.760;2023-06-26T02:27:52;25.70;53.00
21355;DHT22;10835;50.148;19.760;2023-06-26T02:30:21;25.70;53.10
21355;DHT22;10835;50.148;19.760;2023-06-26T02:32:51;25.70;53.00
21355;DHT22;10835;50.148;19.760;2023-06-26T02:35:19;25.60;53.00
21355;DHT22;10835;50.148;19.760;2023-06-26T02:37:47;25.50;53.20
21355;DHT22;10835;50.148;19.760;2023-06-26T02:40:16;25.60;53.30
21355;DHT22;10835;50.148;19.760;2023-06-26T02:42:45;25.70;53.30
21355;DHT22;10835;50.148;19.760;2023-06-26T02:45:14;25.80;52.90
21355;DHT22;10835;50.148;19.760;2023-06-26T02:47:42;25.70;52.80
21355;DHT22;10835;50.148;19.760;2023-06-26T02:50:12;25.60;53.20
21355;DHT22;10835;50.148;19.760;2023-06-26T02:52:59;25.50;53.90
21355;DHT22;10835;50.148;19.760;2023-06-26T02:55:28;25.50;53.50
21355;DHT22;10835;50.148;19.760;2023-06-26T02:57:57;25.40;53.40
21355;DHT22;10835;50.148;19.760;2023-06-26T03:00:25;25.40;53.60
21355;DHT22;10835;50.148;19.760;2023-06-26T03:02:59;25.40;53.50
21355;DHT22;10835;50.148;19.760;2023-06-26T03:05:29;25.20;53.50
21355;DHT22;10835;50.148;19.760;2023-06-26T03:07:59;25.40;53.80
21355;DHT22;10835;50.148;19.760;2023-06-26T03:10:27;25.40;53.70
21355;DHT22;10835;50.148;19.760;2023-06-26T03:12:55;25.40;53.50
21355;DHT22;10835;50.148;19.760;2023-06-26T03:15:24;25.40;53.80
21355;DHT22;10835;50.148;19.760;2023-06-26T03:17:53;25.40;53.70
21355;DHT22;10835;50.148;19.760;2023-06-26T03:20:25;25.50;54.30
21355;DHT22;10835;50.148;19.760;2023-06-26T03:22:57;25.70;54.40
21355;DHT22;10835;50.148;19.760;2023-06-26T03:25:27;25.70;54.00
21355;DHT22;10835;50.148;19.760;2023-06-26T03:28:13;25.80;53.80
21355;DHT22;10835;50.148;19.760;2023-06-26T03:30:42;25.80;54.10
21355;DHT22;10835;50.148;19.760;2023-06-26T03:33:10;25.90;53.80
21355;DHT22;10835;50.148;19.760;2023-06-26T03:35:39;25.60;53.60
21355;DHT22;10835;50.148;19.760;2023-06-26T03:38:11;25.80;54.20
21355;DHT22;10835;50.148;19.760;2023-06-26T03:40:41;25.70;54.20
21355;DHT22;10835;50.148;19.760;2023-06-26T03:43:09;25.80;54.40
21355;DHT22;10835;50.148;19.760;2023-06-26T03:45:58;26.00;54.90
21355;DHT22;10835;50.148;19.760;2023-06-26T03:48:27;26.10;54.30
21355;DHT22;10835;50.148;19.760;2023-06-26T03:50:55;26.20;54.20
21355;DHT22;10835;50.148;19.760;2023-06-26T03:53:25;26.20;53.60
21355;DHT22;10835;50.148;19.760;2023-06-26T03:55:53;26.30;53.10
21355;DHT22;10835;50.148;19.760;2023-06-26T03:58:23;26.40;53.00
21355;DHT22;10835;50.148;19.760;2023-06-26T04:00:52;26.60;53.80
21355;DHT22;10835;50.148;19.760;2023-06-26T04:03:22;26.60;52.80
21355;DHT22;10835;50.148;19.760;2023-06-26T04:05:51;26.60;52.70
21355;DHT22;10835;50.148;19.760;2023-06-26T04:08:20;26.70;52.60
21355;DHT22;10835;50.148;19.760;2023-06-26T04:10:50;26.80;52.60
21355;DHT22;10835;50.148;19.760;2023-06-26T04:13:19;26.90;52.80
21355;DHT22;10835;50.148;19.760;2023-06-26T04:15:47;26.90;52.70
21355;DHT22;10835;50.148;19.760;2023-06-26T04:18:15;27.00;52.80
21355;DHT22;10835;50.148;19.760;2023-06-26T04:21:04;27.10;51.80
21355;DHT22;10835;50.148;19.760;2023-06-26T04:23:33;27.10;51.80
21355;DHT22;10835;50.148;19.760;2023-06-26T04:26:04;27.10;52.00
21355;DHT22;10835;50.148;19.760;2023-06-26T04:28:33;27.20;52.00
21355;DHT22;10835;50.148;19.760;2023-06-26T04:31:02;27.20;51.80
21355;DHT22;10835;50.148;19.760;2023-06-26T04:33:31;27.00;52.40
21355;DHT22;10835;50.148;19.760;2023-06-26T04:35:59;27.10;52.00
21355;DHT22;10835;50.148;19.760;2023-06-26T04:38:31;27.00;52.20
21355;DHT22;10835;50.148;19.760;2023-06-26T04:41:00;26.90;52.50
21355;DHT22;10835;50.148;19.760;2023-06-26T04:43:30;26.60;53.00
21355;DHT22;10835;50.148;19.760;2023-06-26T04:45:58;26.70;54.20
21355;DHT22;10835;50.148;19.760;2023-06-26T04:48:26;26.90;54.10
21355;DHT22;10835;50.148;19.760;2023-06-26T04:50:55;27.00;53.60
21355;DHT22;10835;50.148;19.760;2023-06-26T04:53:27;27.50;52.80
21355;DHT22;10835;50.148;19.760;2023-06-26T04:55:56;27.50;51.90
21355;DHT22;10835;50.148;19.760;2023-06-26T04:58:24;27.70;52.50
21355;DHT22;10835;50.148;19.760;2023-06-26T05:00:53;27.60;52.00
21355;DHT22;10835;50.148;19.760;2023-06-26T05:03:22;27.50;52.80
21355;DHT22;10835;50.148;19.760;2023-06-26T05:05:50;27.20;52.50
21355;DHT22;10835;50.148;19.760;2023-06-26T05:08:22;27.40;52.60
21355;DHT22;10835;50.148;19.760;2023-06-26T05:10:51;27.20;52.80
21355;DHT22;10835;50.148;19.760;2023-06-26T05:13:20;27.30;53.00
21355;DHT22;10835;50.148;19.760;2023-06-26T05:15:49;27.70;53.10
21355;DHT22;10835;50.148;19.760;2023-06-26T05:18:19;27.80;52.70
21355;DHT22;10835;50.148;19.760;2023-06-26T05:20:48;28.00;52.60
21355;DHT22;10835;50.148;19.760;2023-06-26T05:23:17;28.10;52.00
21355;DHT22;10835;50.148;19.760;2023-06-26T05:25:45;28.00;52.10
21355;DHT22;10835;50.148;19.760;2023-06-26T05:28:15;27.90;52.10
21355;DHT22;10835;50.148;19.760;2023-06-26T05:30:44;27.90;52.40
21355;DHT22;10835;50.148;19.760;2023-06-26T05:33:14;27.90;53.30
21355;DHT22;10835;50.148;19.760;2023-06-26T05:35:48;27.90;53.10
21355;DHT22;10835;50.148;19.760;2023-06-26T05:38:17;27.90;54.00
21355;DHT22;10835;50.148;19.760;2023-06-26T05:40:49;28.10;52.70
21355;DHT22;10835;50.148;19.760;2023-06-26T05:43:19;28.10;51.80
21355;DHT22;10835;50.148;19.760;2023-06-26T05:45:54;27.90;52.70
21355;DHT22;10835;50.148;19.760;2023-06-26T05:48:22;27.90;53.40
21355;DHT22;10835;50.148;19.760;2023-06-26T05:50:52;28.00;53.60
21355;DHT22;10835;50.148;19.760;2023-06-26T05:53:21;27.90;53.20
21355;DHT22;10835;50.148;19.760;2023-06-26T05:55:50;28.20;53.50
21355;DHT22;10835;50.148;19.760;2023-06-26T05:58:20;28.40;52.60
21355;DHT22;10835;50.148;19.760;2023-06-26T06:00:49;28.30;52.20
21355;DHT22;10835;50.148;19.760;2023-06-26T06:03:17;28.40;52.80
21355;DHT22;10835;50.148;19.760;2023-06-26T06:05:46;28.30;52.60
21355;DHT22;10835;50.148;19.760;2023-06-26T06:08:16;28.40;52.50
21355;DHT22;10835;50.148;19.760;2023-06-26T06:10:44;28.20;53.20
21355;DHT22;10835;50.148;19.760;2023-06-26T06:13:13;28.40;53.10
21355;DHT22;10835;50.148;19.760;2023-06-26T06:15:41;28.60;53.50
21355;DHT22;10835;50.148;19.760;2023-06-26T06:18:10;28.70;53.00
21355;DHT22;10835;50.148;19.760;2023-06-26T06:20:38;28.80;52.30
21355;DHT22;10835;50.148;19.760;2023-06-26T06:23:06;28.90;51.90
21355;DHT22;10835;50.148;19.760;2023-06-26T06:25:36;28.90;52.40
21355;DHT22;10835;50.148;19.760;2023-06-26T06:28:04;28.90;52.80
21355;DHT22;10835;50.148;19.760;2023-06-26T06:30:33;28.60;52.20
21355;DHT22;10835;50.148;19.760;2023-06-26T06:33:12;28.60;52.50
21355;DHT22;10835;50.148;19.760;2023-06-26T06:35:40;28.70;53.10
21355;DHT22;10835;50.148;19.760;2023-06-26T06:38:08;28.60;53.00
21355;DHT22;10835;50.148;19.760;2023-06-26T06:40:38;28.60;52.90
21355;DHT22;10835;50.148;19.760;2023-06-26T06:43:07;28.70;52.30
21355;DHT22;10835;50.148;19.760;2023-06-26T06:45:35;28.70;52.50
21355;DHT22;10835;50.148;19.760;2023-06-26T06:48:04;28.90;52.20
21355;DHT22;10835;50.148;19.760;2023-06-26T06:50:33;29.00;51.90
21355;DHT22;10835;50.148;19.760;2023-06-26T06:53:04;29.20;53.60
21355;DHT22;10835;50.148;19.760;2023-06-26T06:55:33;29.10;52.60
21355;DHT22;10835;50.148;19.760;2023-06-26T06:58:02;29.40;51.90
21355;DHT22;10835;50.148;19.760;2023-06-26T07:00:32;29.70;52.50
21355;DHT22;10835;50.148;19.760;2023-06-26T07:03:00;29.60;52.00
21355;DHT22;10835;50.148;19.760;2023-06-26T07:05:29;29.80;50.70
21355;DHT22;10835;50.148;19.760;2023-06-26T07:07:57;29.70;50.90
21355;DHT22;10835;50.148;19.760;2023-06-26T07:10:28;29.80;51.80
21355;DHT22;10835;50.148;19.760;2023-06-26T07:12:56;29.90;50.60
21355;DHT22;10835;50.148;19.760;2023-06-26T07:15:26;30.00;50.90
21355;DHT22;10835;50.148;19.760;2023-06-26T07:17:54;30.10;49.10
21355;DHT22;10835;50.148;19.760;2023-06-26T07:20:23;30.20;51.20
21355;DHT22;10835;50.148;19.760;2023-06-26T07:22:52;30.30;51.40
21355;DHT22;10835;50.148;19.760;2023-06-26T07:25:21;30.40;50.20
21355;DHT22;10835;50.148;19.760;2023-06-26T07:27:49;30.40;49.70
21355;DHT22;10835;50.148;19.760;2023-06-26T07:30:17;30.40;49.40
21355;DHT22;10835;50.148;19.760;2023-06-26T07:32:47;30.50;49.70
21355;DHT22;10835;50.148;19.760;2023-06-26T07:35:16;30.60;50.10
21355;DHT22;10835;50.148;19.760;2023-06-26T07:37:44;30.40;49.20
21355;DHT22;10835;50.148;19.760;2023-06-26T07:40:12;30.90;48.40
21355;DHT22;10835;50.148;19.760;2023-06-26T07:42:41;31.00;48.20
21355;DHT22;10835;50.148;19.760;2023-06-26T07:45:09;31.00;48.30
21355;DHT22;10835;50.148;19.760;2023-06-26T07:47:39;30.90;48.70
21355;DHT22;10835;50.148;19.760;2023-06-26T07:50:09;30.80;48.30
21355;DHT22;10835;50.148;19.760;2023-06-26T07:52:38;30.80;47.10
21355;DHT22;10835;50.148;19.760;2023-06-26T07:55:09;31.10;48.00
21355;DHT22;10835;50.148;19.760;2023-06-26T07:57:37;31.40;48.70
21355;DHT22;10835;50.148;19.760;2023-06-26T08:00:06;31.70;46.40
21355;DHT22;10835;50.148;19.760;2023-06-26T08:02:41;32.00;46.90
21355;DHT22;10835;50.148;19.760;2023-06-26T08:05:10;32.00;44.40
21355;DHT22;10835;50.148;19.760;2023-06-26T08:07:39;31.90;42.80
21355;DHT22;10835;50.148;19.760;2023-06-26T08:10:08;31.90;42.40
21355;DHT22;10835;50.148;19.760;2023-06-26T08:12:36;31.90;45.80
21355;DHT22;10835;50.148;19.760;2023-06-26T08:15:08;32.20;44.80
21355;DHT22;10835;50.148;19.760;2023-06-26T08:17:37;32.50;43.20
21355;DHT22;10835;50.148;19.760;2023-06-26T08:20:07;33.00;42.70
21355;DHT22;10835;50.148;19.760;2023-06-26T08:22:37;33.20;42.90
21355;DHT22;10835;50.148;19.760;2023-06-26T08:25:06;33.30;42.40
21355;DHT22;10835;50.148;19.760;2023-06-26T08:27:37;33.00;41.70
21355;DHT22;10835;50.148;19.760;2023-06-26T08:30:06;33.40;41.50
21355;DHT22;10835;50.148;19.760;2023-06-26T08:32:38;33.50;41.30
21355;DHT22;10835;50.148;19.760;2023-06-26T08:35:07;33.70;42.30
21355;DHT22;10835;50.148;19.760;2023-06-26T08:37:38;33.50;40.50
21355;DHT22;10835;50.148;19.760;2023-06-26T08:40:07;33.20;40.70
21355;DHT22;10835;50.148;19.760;2023-06-26T08:42:36;33.30;40.60
21355;DHT22;10835;50.148;19.760;2023-06-26T08:45:04;33.40;40.80
21355;DHT22;10835;50.148;19.760;2023-06-26T08:47:35;33.10;40.00
21355;DHT22;10835;50.148;19.760;2023-06-26T08:50:07;33.80;38.90
21355;DHT22;10835;50.148;19.760;2023-06-26T08:52:43;33.90;40.20
21355;DHT22;10835;50.148;19.760;2023-06-26T08:55:12;34.10;38.80
21355;DHT22;10835;50.148;19.760;2023-06-26T08:57:42;34.40;41.00
21355;DHT22;10835;50.148;19.760;2023-06-26T09:00:14;34.40;38.20
21355;DHT22;10835;50.148;19.760;2023-06-26T09:02:44;34.70;37.70
21355;DHT22;10835;50.148;19.760;2023-06-26T09:05:13;34.60;37.00
21355;DHT22;10835;50.148;19.760;2023-06-26T09:07:45;34.90;34.80
21355;DHT22;10835;50.148;19.760;2023-06-26T09:10:13;34.40;36.50
21355;DHT22;10835;50.148;19.760;2023-06-26T09:12:46;35.00;36.60
21355;DHT22;10835;50.148;19.760;2023-06-26T09:15:15;35.10;35.60
21355;DHT22;10835;50.148;19.760;2023-06-26T09:17:44;35.00;34.70
21355;DHT22;10835;50.148;19.760;2023-06-26T09:20:12;35.30;37.00
21355;DHT22;10835;50.148;19.760;2023-06-26T09:22:42;35.40;36.80
21355;DHT22;10835;50.148;19.760;2023-06-26T09:25:12;35.20;35.90
21355;DHT22;10835;50.148;19.760;2023-06-26T09:27:43;35.50;36.20
21355;DHT22;10835;50.148;19.760;2023-06-26T09:30:17;35.60;33.10
21355;DHT22;10835;50.148;19.760;2023-06-26T09:32:45;35.70;34.30
21355;DHT22;10835;50.148;19.760;2023-06-26T09:35:14;35.60;33.80
21355;DHT22;10835;50.148;19.760;2023-06-26T09:37:44;35.70;32.90
21355;DHT22;10835;50.148;19.760;2023-06-26T09:40:14;35.50;33.80
21355;DHT22;10835;50.148;19.760;2023-06-26T09:42:43;35.70;35.80
21355;DHT22;10835;50.148;19.760;2023-06-26T09:45:18;35.90;34.40
21355;DHT22;10835;50.148;19.760;2023-06-26T09:47:47;35.70;36.90
21355;DHT22;10835;50.148;19.760;2023-06-26T09:50:22;36.00;35.00
21355;DHT22;10835;50.148;19.760;2023-06-26T09:52:54;35.10;34.30
21355;DHT22;10835;50.148;19.760;2023-06-26T09:55:25;35.30;34.20
21355;DHT22;10835;50.148;19.760;2023-06-26T09:57:56;35.60;33.50
21355;DHT22;10835;50.148;19.760;2023-06-26T10:00:30;35.60;32.40
21355;DHT22;10835;50.148;19.760;2023-06-26T10:02:59;35.70;33.70
21355;DHT22;10835;50.148;19.760;2023-06-26T10:05:27;35.70;32.20
21355;DHT22;10835;50.148;19.760;2023-06-26T10:07:56;35.40;31.80
21355;DHT22;10835;50.148;19.760;2023-06-26T10:10:27;35.50;33.70
21355;DHT22;10835;50.148;19.760;2023-06-26T10:12:59;35.80;33.30
21355;DHT22;10835;50.148;19.760;2023-06-26T10:15:29;35.60;32.50
21355;DHT22;10835;50.148;19.760;2023-06-26T10:17:58;36.00;31.90
21355;DHT22;10835;50.148;19.760;2023-06-26T10:20:27;36.40;33.50
21355;DHT22;10835;50.148;19.760;2023-06-26T10:22:57;36.30;34.20
21355;DHT22;10835;50.148;19.760;2023-06-26T10:25:31;36.20;32.20
21355;DHT22;10835;50.148;19.760;2023-06-26T10:28:02;36.40;35.00
21355;DHT22;10835;50.148;19.760;2023-06-26T10:30:33;36.10;33.80
21355;DHT22;10835;50.148;19.760;2023-06-26T10:33:04;36.00;33.20
21355;DHT22;10835;50.148;19.760;2023-06-26T10:35:42;35.70;34.40
21355;DHT22;10835;50.148;19.760;2023-06-26T10:38:10;36.00;34.70
21355;DHT22;10835;50.148;19.760;2023-06-26T10:40:45;35.70;33.80
21355;DHT22;10835;50.148;19.760;2023-06-26T10:43:17;36.10;33.30
21355;DHT22;10835;50.148;19.760;2023-06-26T10:45:47;35.90;34.10
21355;DHT22;10835;50.148;19.760;2023-06-26T10:48:21;36.10;32.20
21355;DHT22;10835;50.148;19.760;2023-06-26T10:50:50;36.00;32.90
21355;DHT22;10835;50.148;19.760;2023-06-26T10:53:23;36.10;34.20
21355;DHT22;10835;50.148;19.760;2023-06-26T10:55:57;35.50;34.50
21355;DHT22;10835;50.148;19.760;2023-06-26T10:58:40;35.30;35.00
21355;DHT22;10835;50.148;19.760;2023-06-26T11:01:16;35.60;32.30
21355;DHT22;10835;50.148;19.760;2023-06-26T11:03:47;35.80;32.00
21355;DHT22;10835;50.148;19.760;2023-06-26T11:06:21;35.70;32.80
21355;DHT22;10835;50.148;19.760;2023-06-26T11:08:51;35.40;32.00
21355;DHT22;10835;50.148;19.760;2023-06-26T11:11:22;35.60;33.90
21355;DHT22;10835;50.148;19.760;2023-06-26T11:14:11;35.90;33.80
21355;DHT22;10835;50.148;19.760;2023-06-26T11:16:42;35.80;34.50
21355;DHT22;10835;50.148;19.760;2023-06-26T11:19:11;35.70;34.10
21355;DHT22;10835;50.148;19.760;2023-06-26T11:21:39;35.50;33.70
21355;DHT22;10835;50.148;19.760;2023-06-26T11:24:08;35.90;33.90
21355;DHT22;10835;50.148;19.760;2023-06-26T11:26:40;35.90;35.60
21355;DHT22;10835;50.148;19.760;2023-06-26T11:29:10;36.30;35.30
21355;DHT22;10835;50.148;19.760;2023-06-26T11:31:39;36.50;33.90
21355;DHT22;10835;50.148;19.760;2023-06-26T11:34:09;36.20;34.80
21355;DHT22;10835;50.148;19.760;2023-06-26T11:36:39;36.10;34.70
21355;DHT22;10835;50.148;19.760;2023-06-26T11:39:09;36.40;35.10
21355;DHT22;10835;50.148;19.760;2023-06-26T11:41:40;36.80;33.20
21355;DHT22;10835;50.148;19.760;2023-06-26T11:44:09;36.80;33.80
21355;DHT22;10835;50.148;19.760;2023-06-26T11:46:38;37.10;31.90
21355;DHT22;10835;50.148;19.760;2023-06-26T11:49:06;36.30;32.60
21355;DHT22;10835;50.148;19.760;2023-06-26T11:51:38;36.50;32.40
21355;DHT22;10835;50.148;19.760;2023-06-26T11:54:07;36.60;33.00
21355;DHT22;10835;50.148;19.760;2023-06-26T11:56:35;37.00;32.00
21355;DHT22;10835;50.148;19.760;2023-06-26T11:59:06;37.00;35.10
21355;DHT22;10835;50.148;19.760;2023-06-26T12:01:39;37.10;33.80
21355;DHT22;10835;50.148;19.760;2023-06-26T12:04:09;37.00;32.90
21355;DHT22;10835;50.148;19.760;2023-06-26T12:06:41;37.00;31.20
21355;DHT22;10835;50.148;19.760;2023-06-26T12:09:11;36.70;32.90
21355;DHT22;10835;50.148;19.760;2023-06-26T12:11:42;36.60;33.20
21355;DHT22;10835;50.148;19.760;2023-06-26T12:14:12;36.40;34.30
21355;DHT22;10835;50.148;19.760;2023-06-26T12:16:42;37.20;33.00
21355;DHT22;10835;50.148;19.760;2023-06-26T12:19:10;36.70;34.80
21355;DHT22;10835;50.148;19.760;2023-06-26T12:21:47;37.00;34.70
21355;DHT22;10835;50.148;19.760;2023-06-26T12:24:20;37.10;31.90
21355;DHT22;10835;50.148;19.760;2023-06-26T12:26:51;37.00;32.80
21355;DHT22;10835;50.148;19.760;2023-06-26T12:29:31;37.20;31.80
21355;DHT22;10835;50.148;19.760;2023-06-26T12:32:01;37.00;32.80
21355;DHT22;10835;50.148;19.760;2023-06-26T12:34:32;37.10;33.90
21355;DHT22;10835;50.148;19.760;2023-06-26T12:37:02;37.10;33.50
21355;DHT22;10835;50.148;19.760;2023-06-26T12:39:45;37.20;33.10
21355;DHT22;10835;50.148;19.760;2023-06-26T12:42:15;36.90;32.50
21355;DHT22;10835;50.148;19.760;2023-06-26T12:44:45;36.60;32.40
21355;DHT22;10835;50.148;19.760;2023-06-26T12:47:14;37.10;33.30
21355;DHT22;10835;50.148;19.760;2023-06-26T12:49:44;37.10;33.10
21355;DHT22;10835;50.148;19.760;2023-06-26T12:52:15;36.90;32.30
21355;DHT22;10835;50.148;19.760;2023-06-26T12:54:45;36.90;32.80
21355;DHT22;10835;50.148;19.760;2023-06-26T12:57:14;36.90;32.20
21355;DHT22;10835;50.148;19.760;2023-06-26T12:59:42;36.90;31.10
21355;DHT22;10835;50.148;19.760;2023-06-26T13:02:12;36.90;32.50
21355;DHT22;10835;50.148;19.760;2023-06-26T13:04:40;36.80;32.20
21355;DHT22;10835;50.148;19.760;2023-06-26T13:07:11;36.80;32.90
21355;DHT22;10835;50.148;19.760;2023-06-26T13:09:40;36.90;31.30
21355;DHT22;10835;50.148;19.760;2023-06-26T13:12:09;37.30;30.90
21355;DHT22;10835;50.148;19.760;2023-06-26T13:14:37;37.40;30.00
21355;DHT22;10835;50.148;19.760;2023-06-26T13:17:06;37.30;31.50
21355;DHT22;10835;50.148;19.760;2023-06-26T13:19:37;37.20;31.50
21355;DHT22;10835;50.148;19.760;2023-06-26T13:22:07;37.10;31.90
21355;DHT22;10835;50.148;19.760;2023-06-26T13:24:35;37.20;32.60
21355;DHT22;10835;50.148;19.760;2023-06-26T13:27:06;37.50;32.50
21355;DHT22;10835;50.148;19.760;2023-06-26T13:29:35;37.50;32.40
21355;DHT22;10835;50.148;19.760;2023-06-26T13:32:04;37.60;33.40
21355;DHT22;10835;50.148;19.760;2023-06-26T13:34:32;37.20;31.10
21355;DHT22;10835;50.148;19.760;2023-06-26T13:37:02;37.30;30.90
21355;DHT22;10835;50.148;19.760;2023-06-26T13:39:30;37.10;32.10
21355;DHT22;10835;50.148;19.760;2023-06-26T13:41:59;37.10;31.90
21355;DHT22;10835;50.148;19.760;2023-06-26T13:44:28;37.40;31.80
21355;DHT22;10835;50.148;19.760;2023-06-26T13:47:05;36.90;33.60
21355;DHT22;10835;50.148;19.760;2023-06-26T13:49:36;37.10;31.90
21355;DHT22;10835;50.148;19.760;2023-06-26T13:52:08;36.80;30.90
21355;DHT22;10835;50.148;19.760;2023-06-26T13:54:37;37.00;31.50
21355;DHT22;10835;50.148;19.760;2023-06-26T13:57:07;37.10;31.60
21355;DHT22;10835;50.148;19.760;2023-06-26T13:59:37;37.00;32.30
21355;DHT22;10835;50.148;19.760;2023-06-26T14:02:07;37.30;30.80
21355;DHT22;10835;50.148;19.760;2023-06-26T14:04:35;37.20;32.10
21355;DHT22;10835;50.148;19.760;2023-06-26T14:07:06;36.90;31.80
21355;DHT22;10835;50.148;19.760;2023-06-26T14:09:35;37.10;32.50
21355;DHT22;10835;50.148;19.760;2023-06-26T14:12:04;37.20;31.80
21355;DHT22;10835;50.148;19.760;2023-06-26T14:14:32;37.20;32.20
21355;DHT22;10835;50.148;19.760;2023-06-26T14:17:00;37.10;33.30
21355;DHT22;10835;50.148;19.760;2023-06-26T14:19:29;36.70;32.90
21355;DHT22;10835;50.148;19.760;2023-06-26T14:21:57;36.60;33.50
21355;DHT22;10835;50.148;19.760;2023-06-26T14:24:27;36.60;30.20
21355;DHT22;10835;50.148;19.760;2023-06-26T14:26:56;36.70;31.30
21355;DHT22;10835;50.148;19.760;2023-06-26T14:29:24;36.70;33.20
21355;DHT22;10835;50.148;19.760;2023-06-26T14:31:58;36.80;33.60
21355;DHT22;10835;50.148;19.760;2023-06-26T14:34:26;36.90;32.30
21355;DHT22;10835;50.148;19.760;2023-06-26T14:36:57;36.70;32.90
21355;DHT22;10835;50.148;19.760;2023-06-26T14:39:27;36.50;33.50
21355;DHT22;10835;50.148;19.760;2023-06-26T14:41:55;35.90;33.80
21355;DHT22;10835;50.148;19.760;2023-06-26T14:44:24;35.70;36.20
21355;DHT22;10835;50.148;19.760;2023-06-26T14:46:54;35.90;36.90
21355;DHT22;10835;50.148;19.760;2023-06-26T14:49:22;35.90;37.10
21355;DHT22;10835;50.148;19.760;2023-06-26T14:51:51;36.00;34.80
21355;DHT22;10835;50.148;19.760;2023-06-26T14:54:19;36.00;35.50
21355;DHT22;10835;50.148;19.760;2023-06-26T14:56:48;36.00;36.60
21355;DHT22;10835;50.148;19.760;2023-06-26T14:59:17;36.00;35.20
21355;DHT22;10835;50.148;19.760;2023-06-26T15:01:45;35.90;36.10
21355;DHT22;10835;50.148;19.760;2023-06-26T15:04:13;35.90;36.10
21355;DHT22;10835;50.148;19.760;2023-06-26T15:06:42;35.70;37.40
21355;DHT22;10835;50.148;19.760;2023-06-26T15:09:10;35.60;36.80
21355;DHT22;10835;50.148;19.760;2023-06-26T15:11:38;35.60;36.70
21355;DHT22;10835;50.148;19.760;2023-06-26T15:14:08;35.70;37.70
21355;DHT22;10835;50.148;19.760;2023-06-26T15:16:36;35.70;37.50
21355;DHT22;10835;50.148;19.760;2023-06-26T15:19:05;35.80;37.80
21355;DHT22;10835;50.148;19.760;2023-06-26T15:21:33;35.90;37.50
21355;DHT22;10835;50.148;19.760;2023-06-26T15:24:01;36.00;37.70
21355;DHT22;10835;50.148;19.760;2023-06-26T15:26:29;36.10;38.10
21355;DHT22;10835;50.148;19.760;2023-06-26T15:28:58;36.20;38.20
21355;DHT22;10835;50.148;19.760;2023-06-26T15:31:29;36.10;37.20